sensor_id;sensor_type;location;lat;lon;timestamp;temperature;humidity
81212;DHT22;70686;52.494;13.420;2023-07-13T00:01:02;22.40;48.00
81212;DHT22;70686;52.494;13.420;2023-07-13T00:03:28;22.50;47.60
81212;DHT22;70686;52.494;13.420;2023-07-13T00:06:00;22.50;47.40
81212;DHT22;70686;52.494;13.420;2023-07-13T00:08:29;22.30;47.90
81212;DHT22;70686;52.494;13.420;2023-07-13T00:10:55;22.20;47.80
81212;DHT22;70686;52.494;13.420;2023-07-13T00:13:21;22.00;48.50
81212;DHT22;70686;52.494;13.420;2023-07-13T00:15:47;22.00;49.00
81212;DHT22;70686;52.494;13.420;2023-07-13T00:18:12;21.90;48.90
81212;DHT22;70686;52.494;13.420;2023-07-13T00:20:38;21.90;49.00
81212;DHT22;70686;52.494;13.420;2023-07-13T00:23:06;21.90;49.20
81212;DHT22;70686;52.494;13.420;2023-07-13T00:37:57;21.50;50.40
81212;DHT22;70686;52.494;13.420;2023-07-13T01:48:51;21.10;52.20
81212;DHT22;70686;52.494;13.420;2023-07-13T01:55:18;21.10;51.90
81212;DHT22;70686;52.494;13.420;2023-07-13T02:17:21;20.80;53.00
81212;DHT22;70686;52.494;13.420;2023-07-13T02:29:06;20.50;54.20
81212;DHT22;70686;52.494;13.420;2023-07-13T02:32:21;20.40;54.60
81212;DHT22;70686;52.494;13.420;2023-07-13T02:35:06;20.50;54.60
81212;DHT22;70686;52.494;13.420;2023-07-13T02:38:10;20.40;54.90
81212;DHT22;70686;52.494;13.420;2023-07-13T02:50:24;20.30;55.30
81212;DHT22;70686;52.494;13.420;2023-07-13T02:53:06;20.40;55.20
81212;DHT22;70686;52.494;13.420;2023-07-13T02:55:55;20.50;54.90
81212;DHT22;70686;52.494;13.420;2023-07-13T02:58:37;20.50;54.70
81212;DHT22;70686;52.494;13.420;2023-07-13T03:01:08;20.40;55.00
81212;DHT22;70686;52.494;13.420;2023-07-13T03:03:34;20.40;55.40
81212;DHT22;70686;52.494;13.420;2023-07-13T03:06:00;20.30;55.60
81212;DHT22;70686;52.494;13.420;2023-07-13T03:08:27;20.20;55.80
81212;DHT22;70686;52.494;13.420;2023-07-13T03:11:10;20.10;56.10
81212;DHT22;70686;52.494;13.420;2023-07-13T03:13:37;20.00;56.40
81212;DHT22;70686;52.494;13.420;2023-07-13T03:16:03;20.10;56.20
81212;DHT22;70686;52.494;13.420;2023-07-13T03:18:29;20.00;56.40
81212;DHT22;70686;52.494;13.420;2023-07-13T03:20:55;20.00;56.80
81212;DHT22;70686;52.494;13.420;2023-07-13T03:23:21;20.00;56.50
81212;DHT22;70686;52.494;13.420;2023-07-13T03:25:47;19.90;56.90
81212;DHT22;70686;52.494;13.420;2023-07-13T03:28:13;19.90;57.10
81212;DHT22;70686;52.494;13.420;2023-07-13T03:30:39;19.80;57.40
81212;DHT22;70686;52.494;13.420;2023-07-13T03:33:05;19.90;57.10
81212;DHT22;70686;52.494;13.420;2023-07-13T03:35:30;20.00;56.80
81212;DHT22;70686;52.494;13.420;2023-07-13T03:37:58;20.00;56.90
81212;DHT22;70686;52.494;13.420;2023-07-13T03:40:24;20.20;56.40
81212;DHT22;70686;52.494;13.420;2023-07-13T03:42:50;20.10;56.70
81212;DHT22;70686;52.494;13.420;2023-07-13T03:45:16;20.20;56.80
81212;DHT22;70686;52.494;13.420;2023-07-13T03:47:41;20.30;56.80
81212;DHT22;70686;52.494;13.420;2023-07-13T03:50:07;20.30;56.80
81212;DHT22;70686;52.494;13.420;2023-07-13T03:52:33;20.30;57.00
81212;DHT22;70686;52.494;13.420;2023-07-13T03:54:58;20.20;57.30
81212;DHT22;70686;52.494;13.420;2023-07-13T03:57:24;20.20;57.30
81212;DHT22;70686;52.494;13.420;2023-07-13T03:59:49;20.40;57.00
81212;DHT22;70686;52.494;13.420;2023-07-13T04:02:15;20.40;56.90
81212;DHT22;70686;52.494;13.420;2023-07-13T04:04:41;20.50;56.40
81212;DHT22;70686;52.494;13.420;2023-07-13T04:07:06;20.50;56.30
81212;DHT22;70686;52.494;13.420;2023-07-13T04:09:33;20.50;56.50
81212;DHT22;70686;52.494;13.420;2023-07-13T04:14:37;20.60;56.20
81212;DHT22;70686;52.494;13.420;2023-07-13T04:17:11;20.90;55.60
81212;DHT22;70686;52.494;13.420;2023-07-13T04:22:46;21.00;54.90
81212;DHT22;70686;52.494;13.420;2023-07-13T04:25:12;20.90;55.10
81212;DHT22;70686;52.494;13.420;2023-07-13T04:27:37;20.80;55.10
81212;DHT22;70686;52.494;13.420;2023-07-13T04:30:05;20.60;55.60
81212;DHT22;70686;52.494;13.420;2023-07-13T04:32:31;20.70;55.20
81212;DHT22;70686;52.494;13.420;2023-07-13T04:34:57;20.90;54.80
81212;DHT22;70686;52.494;13.420;2023-07-13T04:37:27;20.70;55.10
81212;DHT22;70686;52.494;13.420;2023-07-13T04:39:56;20.60;55.20
81212;DHT22;70686;52.494;13.420;2023-07-13T04:42:24;20.90;54.60
81212;DHT22;70686;52.494;13.420;2023-07-13T04:44:50;20.90;54.70
81212;DHT22;70686;52.494;13.420;2023-07-13T04:47:16;20.90;54.60
81212;DHT22;70686;52.494;13.420;2023-07-13T04:49:47;20.90;54.40
81212;DHT22;70686;52.494;13.420;2023-07-13T04:52:30;21.10;54.30
81212;DHT22;70686;52.494;13.420;2023-07-13T04:55:06;21.20;53.70
81212;DHT22;70686;52.494;13.420;2023-07-13T04:57:45;21.30;53.20
81212;DHT22;70686;52.494;13.420;2023-07-13T05:00:24;21.40;53.40
81212;DHT22;70686;52.494;13.420;2023-07-13T05:02:50;21.30;53.20
81212;DHT22;70686;52.494;13.420;2023-07-13T05:05:32;21.30;53.40
81212;DHT22;70686;52.494;13.420;2023-07-13T05:07:59;21.30;53.50
81212;DHT22;70686;52.494;13.420;2023-07-13T05:10:27;21.20;53.70
81212;DHT22;70686;52.494;13.420;2023-07-13T05:12:57;21.10;54.00
81212;DHT22;70686;52.494;13.420;2023-07-13T05:15:35;21.30;53.30
81212;DHT22;70686;52.494;13.420;2023-07-13T05:18:04;21.50;54.20
81212;DHT22;70686;52.494;13.420;2023-07-13T05:20:32;21.50;53.00
81212;DHT22;70686;52.494;13.420;2023-07-13T05:22:58;21.60;52.60
81212;DHT22;70686;52.494;13.420;2023-07-13T05:25:24;21.50;52.70
81212;DHT22;70686;52.494;13.420;2023-07-13T05:27:49;21.70;52.50
81212;DHT22;70686;52.494;13.420;2023-07-13T05:30:15;21.70;52.40
81212;DHT22;70686;52.494;13.420;2023-07-13T05:32:41;21.70;52.40
81212;DHT22;70686;52.494;13.420;2023-07-13T05:35:14;22.00;51.70
81212;DHT22;70686;52.494;13.420;2023-07-13T05:40:46;21.90;52.00
81212;DHT22;70686;52.494;13.420;2023-07-13T05:43:21;21.90;52.10
81212;DHT22;70686;52.494;13.420;2023-07-13T05:45:47;21.90;52.00
81212;DHT22;70686;52.494;13.420;2023-07-13T05:48:36;21.80;52.40
81212;DHT22;70686;52.494;13.420;2023-07-13T05:51:01;21.80;52.50
81212;DHT22;70686;52.494;13.420;2023-07-13T05:53:29;22.00;52.20
81212;DHT22;70686;52.494;13.420;2023-07-13T05:55:58;22.10;51.90
81212;DHT22;70686;52.494;13.420;2023-07-13T05:58:31;22.20;51.40
81212;DHT22;70686;52.494;13.420;2023-07-13T06:01:04;22.40;51.00
81212;DHT22;70686;52.494;13.420;2023-07-13T06:03:36;22.60;49.90
81212;DHT22;70686;52.494;13.420;2023-07-13T06:06:09;22.60;49.70
81212;DHT22;70686;52.494;13.420;2023-07-13T06:08:44;22.60;49.40
81212;DHT22;70686;52.494;13.420;2023-07-13T06:11:12;22.60;49.70
81212;DHT22;70686;52.494;13.420;2023-07-13T06:13:39;22.60;49.90
81212;DHT22;70686;52.494;13.420;2023-07-13T06:16:04;22.70;49.80
81212;DHT22;70686;52.494;13.420;2023-07-13T06:24:17;22.70;50.10
81212;DHT22;70686;52.494;13.420;2023-07-13T06:27:02;22.70;50.00
81212;DHT22;70686;52.494;13.420;2023-07-13T06:29:30;23.00;49.30
81212;DHT22;70686;52.494;13.420;2023-07-13T06:31:56;23.20;48.50
81212;DHT22;70686;52.494;13.420;2023-07-13T06:34:22;23.10;48.00
81212;DHT22;70686;52.494;13.420;2023-07-13T06:36:50;23.00;48.50
81212;DHT22;70686;52.494;13.420;2023-07-13T06:39:16;23.00;48.60
81212;DHT22;70686;52.494;13.420;2023-07-13T06:41:41;23.10;48.50
81212;DHT22;70686;52.494;13.420;2023-07-13T06:44:07;23.10;48.30
81212;DHT22;70686;52.494;13.420;2023-07-13T06:46:36;23.10;48.70
81212;DHT22;70686;52.494;13.420;2023-07-13T06:49:05;23.10;48.50
81212;DHT22;70686;52.494;13.420;2023-07-13T06:51:30;23.40;48.20
81212;DHT22;70686;52.494;13.420;2023-07-13T06:53:56;23.50;47.20
81212;DHT22;70686;52.494;13.420;2023-07-13T06:56:21;23.50;47.50
81212;DHT22;70686;52.494;13.420;2023-07-13T06:58:47;23.60;47.30
81212;DHT22;70686;52.494;13.420;2023-07-13T07:01:13;23.50;47.80
81212;DHT22;70686;52.494;13.420;2023-07-13T07:03:57;23.70;47.30
81212;DHT22;70686;52.494;13.420;2023-07-13T07:06:23;23.80;45.70
81212;DHT22;70686;52.494;13.420;2023-07-13T07:08:49;23.80;46.00
81212;DHT22;70686;52.494;13.420;2023-07-13T07:11:20;23.90;45.70
81212;DHT22;70686;52.494;13.420;2023-07-13T07:13:51;24.00;45.10
81212;DHT22;70686;52.494;13.420;2023-07-13T07:16:18;24.20;44.70
81212;DHT22;70686;52.494;13.420;2023-07-13T07:18:45;24.30;45.60
81212;DHT22;70686;52.494;13.420;2023-07-13T07:21:20;24.30;43.80
81212;DHT22;70686;52.494;13.420;2023-07-13T07:23:51;24.30;43.30
81212;DHT22;70686;52.494;13.420;2023-07-13T07:26:25;24.40;42.90
81212;DHT22;70686;52.494;13.420;2023-07-13T07:28:54;24.30;43.50
81212;DHT22;70686;52.494;13.420;2023-07-13T07:32:01;24.50;43.70
81212;DHT22;70686;52.494;13.420;2023-07-13T07:34:54;24.80;42.40
81212;DHT22;70686;52.494;13.420;2023-07-13T07:37:23;24.90;42.00
81212;DHT22;70686;52.494;13.420;2023-07-13T07:39:49;24.70;42.90
81212;DHT22;70686;52.494;13.420;2023-07-13T07:42:15;24.80;42.20
81212;DHT22;70686;52.494;13.420;2023-07-13T07:44:41;24.60;42.20
81212;DHT22;70686;52.494;13.420;2023-07-13T07:50:02;24.70;41.90
81212;DHT22;70686;52.494;13.420;2023-07-13T07:52:46;24.80;42.30
81212;DHT22;70686;52.494;13.420;2023-07-13T07:55:41;24.90;41.70
81212;DHT22;70686;52.494;13.420;2023-07-13T07:58:10;24.60;42.20
81212;DHT22;70686;52.494;13.420;2023-07-13T08:00:41;24.50;42.80
81212;DHT22;70686;52.494;13.420;2023-07-13T08:05:53;24.80;42.40
81212;DHT22;70686;52.494;13.420;2023-07-13T11:20:47;25.80;34.00
81212;DHT22;70686;52.494;13.420;2023-07-13T11:44:43;25.90;32.70
81212;DHT22;70686;52.494;13.420;2023-07-13T15:32:22;31.40;24.90
81212;DHT22;70686;52.494;13.420;2023-07-13T15:35:26;31.20;24.80
81212;DHT22;70686;52.494;13.420;2023-07-13T15:56:41;30.60;26.50
81212;DHT22;70686;52.494;13.420;2023-07-13T15:59:27;30.90;26.10
81212;DHT22;70686;52.494;13.420;2023-07-13T16:46:21;29.50;25.80
81212;DHT22;70686;52.494;13.420;2023-07-13T16:48:47;28.80;26.80
81212;DHT22;70686;52.494;13.420;2023-07-13T16:51:12;28.20;27.40
81212;DHT22;70686;52.494;13.420;2023-07-13T16:53:38;27.70;28.10
81212;DHT22;70686;52.494;13.420;2023-07-13T16:56:11;27.30;28.40
81212;DHT22;70686;52.494;13.420;2023-07-13T16:58:38;27.20;28.70
81212;DHT22;70686;52.494;13.420;2023-07-13T17:01:06;26.90;29.50
81212;DHT22;70686;52.494;13.420;2023-07-13T17:03:32;26.40;29.90
81212;DHT22;70686;52.494;13.420;2023-07-13T17:05:58;26.30;30.10
81212;DHT22;70686;52.494;13.420;2023-07-13T17:08:29;26.30;30.50
81212;DHT22;70686;52.494;13.420;2023-07-13T17:10:56;26.20;30.50
81212;DHT22;70686;52.494;13.420;2023-07-13T17:13:25;26.20;30.50
81212;DHT22;70686;52.494;13.420;2023-07-13T17:15:52;26.00;33.10
81212;DHT22;70686;52.494;13.420;2023-07-13T17:21:37;24.30;40.40
81212;DHT22;70686;52.494;13.420;2023-07-13T17:24:19;23.50;45.30
81212;DHT22;70686;52.494;13.420;2023-07-13T17:27:01;23.00;46.50
81212;DHT22;70686;52.494;13.420;2023-07-13T17:29:35;22.50;48.20
81212;DHT22;70686;52.494;13.420;2023-07-13T17:32:05;22.20;49.10
81212;DHT22;70686;52.494;13.420;2023-07-13T17:34:31;22.00;49.90
81212;DHT22;70686;52.494;13.420;2023-07-13T17:36:57;22.00;49.70
81212;DHT22;70686;52.494;13.420;2023-07-13T17:39:24;21.90;50.00
81212;DHT22;70686;52.494;13.420;2023-07-13T17:41:51;21.70;50.50
81212;DHT22;70686;52.494;13.420;2023-07-13T17:44:22;21.50;50.90
81212;DHT22;70686;52.494;13.420;2023-07-13T17:46:49;21.50;51.00
81212;DHT22;70686;52.494;13.420;2023-07-13T17:49:16;21.40;51.20
81212;DHT22;70686;52.494;13.420;2023-07-13T17:51:46;21.40;51.40
81212;DHT22;70686;52.494;13.420;2023-07-13T17:54:12;21.40;51.40
81212;DHT22;70686;52.494;13.420;2023-07-13T17:56:38;21.30;51.30
81212;DHT22;70686;52.494;13.420;2023-07-13T17:59:04;21.20;52.00
81212;DHT22;70686;52.494;13.420;2023-07-13T18:01:30;21.30;52.10
81212;DHT22;70686;52.494;13.420;2023-07-13T18:03:56;21.40;51.60
81212;DHT22;70686;52.494;13.420;2023-07-13T18:06:27;21.50;51.70
81212;DHT22;70686;52.494;13.420;2023-07-13T18:08:55;21.60;51.00
81212;DHT22;70686;52.494;13.420;2023-07-13T18:11:21;21.60;50.80
81212;DHT22;70686;52.494;13.420;2023-07-13T18:34:35;22.00;49.50
81212;DHT22;70686;52.494;13.420;2023-07-13T18:37:02;22.20;48.80
81212;DHT22;70686;52.494;13.420;2023-07-13T18:39:30;22.10;47.90
81212;DHT22;70686;52.494;13.420;2023-07-13T18:42:07;21.90;48.00
81212;DHT22;70686;52.494;13.420;2023-07-13T18:44:36;21.80;48.60
81212;DHT22;70686;52.494;13.420;2023-07-13T18:47:21;21.60;48.90
81212;DHT22;70686;52.494;13.420;2023-07-13T19:07:57;21.90;48.30
81212;DHT22;70686;52.494;13.420;2023-07-13T19:10:45;21.90;48.10
81212;DHT22;70686;52.494;13.420;2023-07-13T19:13:27;21.90;47.90
81212;DHT22;70686;52.494;13.420;2023-07-13T19:24:25;21.70;48.60
81212;DHT22;70686;52.494;13.420;2023-07-13T19:29:32;21.30;50.10
81212;DHT22;70686;52.494;13.420;2023-07-13T19:32:08;21.30;50.60
81212;DHT22;70686;52.494;13.420;2023-07-13T19:34:36;21.10;51.00
81212;DHT22;70686;52.494;13.420;2023-07-13T19:37:10;21.20;50.80
81212;DHT22;70686;52.494;13.420;2023-07-13T19:39:51;21.10;50.80
81212;DHT22;70686;52.494;13.420;2023-07-13T19:42:23;21.20;50.40
81212;DHT22;70686;52.494;13.420;2023-07-13T19:45:04;21.40;49.60
81212;DHT22;70686;52.494;13.420;2023-07-13T19:47:35;21.30;50.00
81212;DHT22;70686;52.494;13.420;2023-07-13T19:50:03;21.20;50.30
81212;DHT22;70686;52.494;13.420;2023-07-13T19:53:03;21.00;51.20
81212;DHT22;70686;52.494;13.420;2023-07-13T19:55:56;20.90;52.10
81212;DHT22;70686;52.494;13.420;2023-07-13T19:58:28;21.00;51.50
81212;DHT22;70686;52.494;13.420;2023-07-13T20:01:22;20.90;51.90
81212;DHT22;70686;52.494;13.420;2023-07-13T20:12:59;21.20;51.70
81212;DHT22;70686;52.494;13.420;2023-07-13T20:15:31;21.00;52.60
81212;DHT22;70686;52.494;13.420;2023-07-13T20:17:58;20.80;53.20
81212;DHT22;70686;52.494;13.420;2023-07-13T20:20:40;21.10;52.30
81212;DHT22;70686;52.494;13.420;2023-07-13T20:25:36;20.90;53.30
81212;DHT22;70686;52.494;13.420;2023-07-13T20:28:03;20.90;53.00
81212;DHT22;70686;52.494;13.420;2023-07-13T20:30:30;20.80;52.90
81212;DHT22;70686;52.494;13.420;2023-07-13T20:32:59;20.60;52.80
81212;DHT22;70686;52.494;13.420;2023-07-13T20:35:37;20.70;52.20
81212;DHT22;70686;52.494;13.420;2023-07-13T20:38:04;20.70;52.30
81212;DHT22;70686;52.494;13.420;2023-07-13T20:40:31;20.70;52.20
81212;DHT22;70686;52.494;13.420;2023-07-13T20:43:07;20.70;52.00
81212;DHT22;70686;52.494;13.420;2023-07-13T20:45:33;20.80;51.20
81212;DHT22;70686;52.494;13.420;2023-07-13T20:48:22;21.00;50.40
81212;DHT22;70686;52.494;13.420;2023-07-13T20:50:49;21.00;50.00
81212;DHT22;70686;52.494;13.420;2023-07-13T20:53:17;20.90;50.30
81212;DHT22;70686;52.494;13.420;2023-07-13T20:56:00;20.80;50.80
81212;DHT22;70686;52.494;13.420;2023-07-13T20:59:01;20.70;51.30
81212;DHT22;70686;52.494;13.420;2023-07-13T21:04:40;20.50;52.20
81212;DHT22;70686;52.494;13.420;2023-07-13T21:18:21;20.40;52.50
81212;DHT22;70686;52.494;13.420;2023-07-13T21:23:37;20.50;52.10
81212;DHT22;70686;52.494;13.420;2023-07-13T21:26:09;20.80;51.40
81212;DHT22;70686;52.494;13.420;2023-07-13T21:28:56;20.90;50.70
81212;DHT22;70686;52.494;13.420;2023-07-13T21:31:30;20.80;51.10
81212;DHT22;70686;52.494;13.420;2023-07-13T21:34:25;20.60;52.20
81212;DHT22;70686;52.494;13.420;2023-07-13T21:37:03;20.50;52.60
81212;DHT22;70686;52.494;13.420;2023-07-13T21:39:29;20.30;53.40
81212;DHT22;70686;52.494;13.420;2023-07-13T21:41:58;20.30;54.00
81212;DHT22;70686;52.494;13.420;2023-07-13T21:44:32;20.30;54.00
81212;DHT22;70686;52.494;13.420;2023-07-13T21:47:00;20.40;53.70
81212;DHT22;70686;52.494;13.420;2023-07-13T21:49:41;20.60;53.00
81212;DHT22;70686;52.494;13.420;2023-07-13T21:52:21;20.50;52.90
81212;DHT22;70686;52.494;13.420;2023-07-13T21:55:22;20.40;53.20
81212;DHT22;70686;52.494;13.420;2023-07-13T21:57:59;20.30;53.30
81212;DHT22;70686;52.494;13.420;2023-07-13T22:00:34;20.30;53.40
81212;DHT22;70686;52.494;13.420;2023-07-13T22:05:39;20.10;53.90
81212;DHT22;70686;52.494;13.420;2023-07-13T22:08:21;20.10;54.10
81212;DHT22;70686;52.494;13.420;2023-07-13T22:10:58;19.90;54.30
81212;DHT22;70686;52.494;13.420;2023-07-13T22:13:49;20.00;54.10
81212;DHT22;70686;52.494;13.420;2023-07-13T22:18:59;20.00;54.50
81212;DHT22;70686;52.494;13.420;2023-07-13T22:21:31;19.90;54.90
81212;DHT22;70686;52.494;13.420;2023-07-13T22:24:03;19.90;54.80
81212;DHT22;70686;52.494;13.420;2023-07-13T22:26:39;19.90;54.80
81212;DHT22;70686;52.494;13.420;2023-07-13T22:29:12;20.10;54.40
81212;DHT22;70686;52.494;13.420;2023-07-13T22:31:44;20.30;54.10
81212;DHT22;70686;52.494;13.420;2023-07-13T22:34:19;20.40;53.90
81212;DHT22;70686;52.494;13.420;2023-07-13T22:36:45;20.20;54.30
81212;DHT22;70686;52.494;13.420;2023-07-13T22:39:22;20.10;54.80
81212;DHT22;70686;52.494;13.420;2023-07-13T22:41:54;20.20;54.60
81212;DHT22;70686;52.494;13.420;2023-07-13T22:44:24;20.10;55.20
81212;DHT22;70686;52.494;13.420;2023-07-13T22:46:55;20.10;55.40
81212;DHT22;70686;52.494;13.420;2023-07-13T22:49:25;20.00;55.60
81212;DHT22;70686;52.494;13.420;2023-07-13T22:52:01;20.20;55.30
81212;DHT22;70686;52.494;13.420;2023-07-13T22:54:33;20.30;54.90
81212;DHT22;70686;52.494;13.420;2023-07-13T22:56:59;20.20;55.50
81212;DHT22;70686;52.494;13.420;2023-07-13T22:59:34;20.20;55.30
81212;DHT22;70686;52.494;13.420;2023-07-13T23:02:03;20.10;55.40
81212;DHT22;70686;52.494;13.420;2023-07-13T23:04:34;20.10;55.40
81212;DHT22;70686;52.494;13.420;2023-07-13T23:07:01;20.00;56.00
81212;DHT22;70686;52.494;13.420;2023-07-13T23:09:30;20.20;55.40
81212;DHT22;70686;52.494;13.420;2023-07-13T23:11:59;20.20;55.40
81212;DHT22;70686;52.494;13.420;2023-07-13T23:14:28;20.10;55.70
81212;DHT22;70686;52.494;13.420;2023-07-13T23:16:57;19.90;56.00
81212;DHT22;70686;52.494;13.420;2023-07-13T23:21:55;19.90;56.20
81212;DHT22;70686;52.494;13.420;2023-07-13T23:24:20;19.80;56.10
81212;DHT22;70686;52.494;13.420;2023-07-13T23:26:46;19.60;56.60
81212;DHT22;70686;52.494;13.420;2023-07-13T23:29:15;19.60;56.80
81212;DHT22;70686;52.494;13.420;2023-07-13T23:31:43;19.60;56.60
81212;DHT22;70686;52.494;13.420;2023-07-13T23:34:15;19.60;56.50
81212;DHT22;70686;52.494;13.420;2023-07-13T23:36:42;19.60;56.50
81212;DHT22;70686;52.494;13.420;2023-07-13T23:39:11;19.50;57.10
81212;DHT22;70686;52.494;13.420;2023-07-13T23:41:37;19.50;56.90
81212;DHT22;70686;52.494;13.420;2023-07-13T23:44:06;19.40;57.10
81212;DHT22;70686;52.494;13.420;2023-07-13T23:46:42;19.50;56.70
81212;DHT22;70686;52.494;13.420;2023-07-13T23:51:40;19.30;58.40
81212;DHT22;70686;52.494;13.420;2023-07-13T23:54:09;19.30;57.50
81212;DHT22;70686;52.494;13.420;2023-07-13T23:56:36;19.20;57.70
81212;DHT22;70686;52.494;13.420;2023-07-13T23:59:02;19.20;57.80
